Brandon, Wisconsin
Current Conditions -  °F | °C
As of 9:53 PM on Wednesday 26 Nov 2014 (Local Time) from KFLD Reporting Station
Haze Haze  
Wind Chill: 11°   Ceiling: Unl
Heat Index: 18°   Visibility: 6mi
Dew Point: 14°   Wind: 5mph
Humidity: 84%   Direction: 240°WSW
Pressure: 30.19"   Gusts: NA
Location:  43.74°N, 88.78°W
Report Text: KFLD 270353Z AUTO 24004KT 6SM BR CLR M08/M10 A3019 RMK AO2 SLP236 T10781100
Loading
Personal Weather Stations






























Interactive Weather Map New forecast layout! Learn more

10-Day Weather Forecast

Advertisements
Track Severe Weather on mobile